メインページ
METAR-TAF:

METAR-TAF

空港 :

ガズヴィーン, イラン

緯度: 36-15N, 経度: 050-00E, 海抜: 1278m

現時点の気象観測

当レポートは48分前の16:00(UTC)に作成
北/北東の風 4kt
気温 5°C
湿度 93%
気圧 1022 hPa
視程: 7000m
高度3500ftの雲は散在している
高度8000ftの曇り

METAR: OIIK 171600Z 02004KT 7000 RA SCT035 OVC080 05/04 Q1022

時間: 20:18 (16:48 UTC)


TAF: 見つかりません

4,000以上の空港の気象観測と天気予報(METAR報とTAF報)

利用可能な観測所は地図上に黄色い丸と赤い丸で示す。

丸の上にカーソルを重ねると観測所名を参照できる。

次にクリックすると気象観測と天気予報を参照できる。

マップの切り替え:黒色「×」印の緑ボタンをクリックして拡大、「-」印の緑ボタンをクリックして縮小、緑色の三角印をクリックして隣りの地図に切り替え


METAR-TAF: